Aérodrome :
LOGIN :

S'inscrire | Disclaimer

   EN    FR    IT 

 










Légende :    VFR   VFR Marginal   IFR   IFR Intensif   IFR Très Intensif
Visi : 
Plafond : 
>= 8 km
>= 3000ft
5 à 8 km
1000 à 3000 ft
1500m à 5 km
500 à 1000 ft
800 à 1500m
200 à 500 ft
< 800m
< 200 ft
Symboles :   Orages  Brouillard  Fortes neiges  Fortes précipitations  Vent > 20 kt
SIGMETs :   Divers  Orages  Givrage  Turbulence  Onde Orograph.  Cendres Volcan.






- Altitude de l'aérodrome : 209 ft
- Code IATA : CLY


LFKC - Calvi

DERNIER METAR :
  • 272100Z AUTO 21022G36KT 9999 SCT033 BKN041 BKN140 15/08 Q1010

METARs EXPIRÉS :
  • 272030Z AUTO 20021G35KT 170V250 9999 FEW035 SCT042 BKN062 14/07 Q1010
  • 272000Z AUTO 21018G29KT 180V250 9999 BKN044 BKN062 BKN140 14/07 Q1010
  • 271930Z AUTO 21016KT 180V250 9999 FEW033 BKN058 BKN068 13/08 Q1010
  • 271900Z AUTO 21017KT 180V250 9999 FEW039 BKN062 BKN072 13/07 Q1010 TEMPO SHRA SCT020CB BKN025 BECMG 20020G35KT
  • 271830Z AUTO 21013G25KT 180V250 9999 FEW028 BKN040 BKN047 13/08 Q1011 TEMPO SHRA SCT020CB BKN025 BECMG 20020G35KT

TAF TAF LFKC
Valide du 27 à 15h jusqu'au 28 à 15h UTC


271400Z 2715/2815 20020G35KT 9999 BKN035 TX15/2812Z TN09/2803Z
TEMPO 2715/2720 SHRA SCT020CB BKN025
BECMG 2803/2804 19005KT
ATIS : +33 4 95 65 82 49



MET'MAP, la Météo Aéronautique d'un coup d'oeil ! - Copyright ORBIFLY Décembre 2007 - Disclaimer

ORBIFLY MET'MAP TEAM :

Programmation & Développement : Alexandra Zaïnal
Sur une idée originale de : Baudouin d'Aumeries
Assistance à la programmation : Marc-Olivier Méhu
Soutien technique & logistique : Manuel Goepfert

Contact : metmap@orbifly.com




SOURCES & CREDITS :

   NOAA